PWSweather.com
Personal Weather Stations
Station Observations
KFLPOINC2
Deerwood Estates, Poinciana, FL 34758

Deerwood EstatesPoinciana, FL 34758

Lat: 28.161417, Lon: -81.477557

Elevation: 72

Station Type: Ambient Weather WS 2080

Latest ConditionsUpdated 6:05:00 AM EDT Saturday, Sep 20, 2014
Currently Today's Max Today's Min Today's Average
Temperature 71.6°F22.0°C 72.1°F22.3°C 70.7°F21.5°C 71.5°F21.9°C
Dew Point 69.8°F21.0°C 70.4°F21.3°C 68.9°F20.5°C 69.7°F20.9°C
Winds 2.2 mph E3.5 kmh E 7.6 mph ENE12.2 kmh ENE - 3.6 mph 5.8 kmh
Wind Gusts 6.0 mph9.7 kmh 14.5 mph23.3 kmh - -
Humidity 94% 95% 93% 94%
Pressure 29.92 in1013.2 mb 29.92 in1013.2 mb 29.92 in1013.2 mb -
Precipitation - 0.37 in9.4 mm - -
Hour Temp Dew Point Humidity Winds Wind Gusts Pressure Precip Precip Rate Daily Precip Total
06:05 AM 71.6°F22.0°C 69.8°F21.0°C 94% 2.2 mph E3.5 kmh E 6.0 mph9.7 kmh 29.92 in1013.2 mb 0.02 in0.5 mm 0.00 in/hr0.0 mm/hr 0.37 in9.4 mm
06:00 AM 71.6°F22.0°C 69.8°F21.0°C 94% 2.2 mph E3.5 kmh E 8.3 mph13.4 kmh 29.92 in1013.2 mb 0.02 in0.5 mm 0.00 in/hr0.0 mm/hr 0.37 in9.4 mm
05:55 AM 71.6°F22.0°C 69.8°F21.0°C 94% 5.4 mph E8.7 kmh E 8.3 mph13.4 kmh 29.92 in1013.2 mb 0.04 in1.0 mm 0.00 in/hr0.0 mm/hr 0.37 in9.4 mm
05:50 AM 71.6°F22.0°C 69.8°F21.0°C 94% 3.1 mph E5.0 kmh E 7.6 mph12.2 kmh 29.92 in1013.2 mb 0.04 in1.0 mm 0.00 in/hr0.0 mm/hr 0.37 in9.4 mm
05:45 AM 71.8°F22.1°C 70.0°F21.1°C 94% 4.5 mph E7.2 kmh E 6.0 mph9.7 kmh 29.92 in1013.2 mb 0.04 in1.0 mm 0.00 in/hr0.0 mm/hr 0.35 in8.9 mm
05:40 AM 71.8°F22.1°C 70.0°F21.1°C 94% 2.2 mph E3.5 kmh E 7.6 mph12.2 kmh 29.92 in1013.2 mb 0.04 in1.0 mm 0.00 in/hr0.0 mm/hr 0.35 in8.9 mm
05:35 AM 71.8°F22.1°C 70.0°F21.1°C 94% 3.8 mph E6.1 kmh E 7.6 mph12.2 kmh 29.92 in1013.2 mb 0.04 in1.0 mm 0.24 in/hr6.1 mm/hr 0.35 in8.9 mm
05:30 AM 71.8°F22.1°C 70.0°F21.1°C 94% 3.8 mph E6.1 kmh E 6.9 mph11.1 kmh 29.92 in1013.2 mb 0.02 in0.5 mm 0.00 in/hr0.0 mm/hr 0.34 in8.6 mm
05:25 AM 72.0°F22.2°C 70.2°F21.2°C 94% 3.8 mph ESE6.1 kmh ESE 6.9 mph11.1 kmh 29.92 in1013.2 mb 0.02 in0.5 mm 0.00 in/hr0.0 mm/hr 0.34 in8.6 mm
05:20 AM 72.0°F22.2°C 70.2°F21.2°C 94% 3.8 mph ESE6.1 kmh ESE 6.9 mph11.1 kmh 29.92 in1013.2 mb 0.04 in1.0 mm 0.00 in/hr0.0 mm/hr 0.34 in8.6 mm
05:15 AM 72.1°F22.3°C 70.4°F21.3°C 94% 2.2 mph E3.5 kmh E 5.4 mph8.7 kmh 29.92 in1013.2 mb 0.04 in1.0 mm 0.00 in/hr0.0 mm/hr 0.34 in8.6 mm
05:10 AM 72.1°F22.3°C 70.4°F21.3°C 94% 3.1 mph E5.0 kmh E 6.0 mph9.7 kmh 29.92 in1013.2 mb 0.04 in1.0 mm 0.00 in/hr0.0 mm/hr 0.34 in8.6 mm
05:05 AM 72.1°F22.3°C 70.4°F21.3°C 94% 4.5 mph E7.2 kmh E 7.6 mph12.2 kmh 29.92 in1013.2 mb 0.04 in1.0 mm 0.24 in/hr6.1 mm/hr 0.34 in8.6 mm
05:00 AM 72.1°F22.3°C 70.4°F21.3°C 94% 4.5 mph E7.2 kmh E 7.6 mph12.2 kmh 29.92 in1013.2 mb 0.02 in0.5 mm 0.00 in/hr0.0 mm/hr 0.33 in8.4 mm
04:55 AM 72.1°F22.3°C 70.4°F21.3°C 94% 2.2 mph E3.5 kmh E 6.0 mph9.7 kmh 29.92 in1013.2 mb 0.02 in0.5 mm 0.00 in/hr0.0 mm/hr 0.33 in8.4 mm
04:50 AM 72.1°F22.3°C 70.4°F21.3°C 94% 1.6 mph E2.6 kmh E 5.4 mph8.7 kmh 29.92 in1013.2 mb 0.04 in1.0 mm 0.24 in/hr6.1 mm/hr 0.33 in8.4 mm
04:45 AM 72.1°F22.3°C 70.4°F21.3°C 94% 2.2 mph E3.5 kmh E 6.0 mph9.7 kmh 29.92 in1013.2 mb 0.02 in0.5 mm 0.00 in/hr0.0 mm/hr 0.32 in8.1 mm
04:40 AM 72.1°F22.3°C 70.4°F21.3°C 94% 3.1 mph E5.0 kmh E 6.9 mph11.1 kmh 29.92 in1013.2 mb 0.02 in0.5 mm 0.00 in/hr0.0 mm/hr 0.32 in8.1 mm
04:35 AM 72.0°F22.2°C 70.2°F21.2°C 94% 3.1 mph E5.0 kmh E 6.9 mph11.1 kmh 29.92 in1013.2 mb 0.02 in0.5 mm 0.00 in/hr0.0 mm/hr 0.32 in8.1 mm
04:30 AM 72.0°F22.2°C 70.2°F21.2°C 94% 3.1 mph ENE5.0 kmh ENE 5.4 mph8.7 kmh 29.92 in1013.2 mb 0.02 in0.5 mm 0.00 in/hr0.0 mm/hr 0.32 in8.1 mm
04:25 AM 72.0°F22.2°C 70.2°F21.2°C 94% 3.8 mph E6.1 kmh E 5.4 mph8.7 kmh 29.92 in1013.2 mb 0.02 in0.5 mm 0.12 in/hr3.0 mm/hr 0.32 in8.1 mm
04:20 AM 71.8°F22.1°C 70.0°F21.1°C 94% 2.2 mph E3.5 kmh E 6.0 mph9.7 kmh 29.92 in1013.2 mb 0.01 in0.3 mm 0.00 in/hr0.0 mm/hr 0.31 in7.9 mm
04:15 AM 71.8°F22.1°C 70.0°F21.1°C 94% 2.2 mph E3.5 kmh E 6.9 mph11.1 kmh 29.92 in1013.2 mb 0.01 in0.3 mm 0.00 in/hr0.0 mm/hr 0.31 in7.9 mm
04:10 AM 71.8°F22.1°C 70.0°F21.1°C 94% 3.1 mph E5.0 kmh E 6.9 mph11.1 kmh 29.92 in1013.2 mb 0.01 in0.3 mm 0.00 in/hr0.0 mm/hr 0.31 in7.9 mm
04:05 AM 71.8°F22.1°C 70.0°F21.1°C 94% 1.6 mph E2.6 kmh E 7.6 mph12.2 kmh 29.92 in1013.2 mb 0.01 in0.3 mm 0.00 in/hr0.0 mm/hr 0.31 in7.9 mm
04:00 AM 71.6°F22.0°C 69.8°F21.0°C 94% 4.5 mph E7.2 kmh E 8.3 mph13.4 kmh 29.92 in1013.2 mb 0.01 in0.3 mm 0.00 in/hr0.0 mm/hr 0.31 in7.9 mm
03:55 AM 71.6°F22.0°C 69.8°F21.0°C 94% 5.4 mph E8.7 kmh E 8.3 mph13.4 kmh 29.92 in1013.2 mb 0.01 in0.3 mm 0.12 in/hr3.0 mm/hr 0.31 in7.9 mm
03:50 AM 71.6°F22.0°C 69.8°F21.0°C 94% 2.2 mph E3.5 kmh E 7.6 mph12.2 kmh 29.92 in1013.2 mb 0.00 in0.0 mm 0.00 in/hr0.0 mm/hr 0.30 in7.6 mm
03:45 AM 71.6°F22.0°C 69.8°F21.0°C 94% 2.2 mph E3.5 kmh E 7.6 mph12.2 kmh 29.92 in1013.2 mb 0.00 in0.0 mm 0.00 in/hr0.0 mm/hr 0.30 in7.6 mm
03:40 AM 71.6°F22.0°C 69.5°F20.8°C 93% 3.8 mph E6.1 kmh E 9.2 mph14.8 kmh 29.92 in1013.2 mb 0.00 in0.0 mm 0.00 in/hr0.0 mm/hr 0.30 in7.6 mm
03:35 AM 71.4°F21.9°C 70.0°F21.1°C 95% 5.4 mph ENE8.7 kmh ENE 9.2 mph14.8 kmh 29.92 in1013.2 mb 0.00 in0.0 mm 0.00 in/hr0.0 mm/hr 0.30 in7.6 mm
03:30 AM 71.4°F21.9°C 69.6°F20.9°C 94% 7.6 mph ENE12.2 kmh ENE 9.8 mph15.8 kmh 29.92 in1013.2 mb 0.00 in0.0 mm 0.00 in/hr0.0 mm/hr 0.30 in7.6 mm
03:25 AM 71.4°F21.9°C 69.6°F20.9°C 94% 3.8 mph NE6.1 kmh NE 10.7 mph17.2 kmh 29.92 in1013.2 mb 0.00 in0.0 mm 0.00 in/hr0.0 mm/hr 0.30 in7.6 mm
03:20 AM 71.4°F21.9°C 69.6°F20.9°C 94% 7.6 mph NE12.2 kmh NE 10.7 mph17.2 kmh 29.92 in1013.2 mb 0.00 in0.0 mm 0.00 in/hr0.0 mm/hr 0.30 in7.6 mm
03:15 AM 71.2°F21.8°C 69.8°F21.0°C 95% 3.8 mph NE6.1 kmh NE 7.6 mph12.2 kmh 29.92 in1013.2 mb 0.00 in0.0 mm 0.00 in/hr0.0 mm/hr 0.30 in7.6 mm
03:10 AM 71.2°F21.8°C 69.8°F21.0°C 95% 5.4 mph NE8.7 kmh NE 9.2 mph14.8 kmh 29.92 in1013.2 mb 0.00 in0.0 mm 0.00 in/hr0.0 mm/hr 0.30 in7.6 mm
03:05 AM 71.2°F21.8°C 69.8°F21.0°C 95% 5.4 mph ENE8.7 kmh ENE 9.2 mph14.8 kmh 29.92 in1013.2 mb 0.00 in0.0 mm 0.00 in/hr0.0 mm/hr 0.30 in7.6 mm
03:00 AM 71.2°F21.8°C 69.8°F21.0°C 95% 3.8 mph E6.1 kmh E 8.3 mph13.4 kmh 29.92 in1013.2 mb 0.00 in0.0 mm 0.00 in/hr0.0 mm/hr 0.30 in7.6 mm
02:55 AM 71.2°F21.8°C 69.8°F21.0°C 95% 2.2 mph ENE3.5 kmh ENE 8.3 mph13.4 kmh 29.92 in1013.2 mb 0.02 in0.5 mm 0.00 in/hr0.0 mm/hr 0.30 in7.6 mm
02:50 AM 71.2°F21.8°C 69.8°F21.0°C 95% 3.1 mph ENE5.0 kmh ENE 8.3 mph13.4 kmh 29.92 in1013.2 mb 0.02 in0.5 mm 0.00 in/hr0.0 mm/hr 0.30 in7.6 mm
02:45 AM 71.2°F21.8°C 69.8°F21.0°C 95% 3.1 mph ENE5.0 kmh ENE 8.3 mph13.4 kmh 29.92 in1013.2 mb 0.04 in1.0 mm 0.00 in/hr0.0 mm/hr 0.30 in7.6 mm
02:40 AM 71.2°F21.8°C 69.8°F21.0°C 95% 4.5 mph ENE7.2 kmh ENE 8.3 mph13.4 kmh 29.92 in1013.2 mb 0.05 in1.3 mm 0.00 in/hr0.0 mm/hr 0.30 in7.6 mm
02:35 AM 71.2°F21.8°C 69.8°F21.0°C 95% 3.1 mph NE5.0 kmh NE 8.3 mph13.4 kmh 29.92 in1013.2 mb 0.07 in1.8 mm 0.00 in/hr0.0 mm/hr 0.30 in7.6 mm
02:30 AM 71.1°F21.7°C 69.3°F20.7°C 94% 3.1 mph NE5.0 kmh NE 8.3 mph13.4 kmh 29.92 in1013.2 mb 0.08 in2.0 mm 0.00 in/hr0.0 mm/hr 0.30 in7.6 mm
02:25 AM 71.1°F21.7°C 69.3°F20.7°C 94% 3.8 mph ENE6.1 kmh ENE 13.6 mph21.9 kmh 29.92 in1013.2 mb 0.08 in2.0 mm 0.00 in/hr0.0 mm/hr 0.30 in7.6 mm
02:20 AM 71.1°F21.7°C 69.3°F20.7°C 94% 4.5 mph ENE7.2 kmh ENE 13.6 mph21.9 kmh 29.92 in1013.2 mb 0.08 in2.0 mm 0.00 in/hr0.0 mm/hr 0.30 in7.6 mm
02:15 AM 71.1°F21.7°C 69.3°F20.7°C 94% 3.1 mph ENE5.0 kmh ENE 7.6 mph12.2 kmh 29.92 in1013.2 mb 0.08 in2.0 mm 0.00 in/hr0.0 mm/hr 0.30 in7.6 mm
02:10 AM 71.1°F21.7°C 69.3°F20.7°C 94% 4.5 mph ENE7.2 kmh ENE 6.9 mph11.1 kmh 29.92 in1013.2 mb 0.09 in2.3 mm 0.00 in/hr0.0 mm/hr 0.30 in7.6 mm
02:05 AM 70.9°F21.6°C 69.1°F20.6°C 94% 3.8 mph NE6.1 kmh NE 6.9 mph11.1 kmh 29.92 in1013.2 mb 0.11 in2.8 mm 0.00 in/hr0.0 mm/hr 0.30 in7.6 mm
02:00 AM 70.9°F21.6°C 69.1°F20.6°C 94% 2.2 mph NE3.5 kmh NE 10.7 mph17.2 kmh 29.92 in1013.2 mb 0.11 in2.8 mm 0.02 in/hr0.5 mm/hr 0.28 in7.1 mm
01:55 AM 70.9°F21.6°C 69.1°F20.6°C 94% 4.5 mph ENE7.2 kmh ENE 14.5 mph23.3 kmh 29.92 in1013.2 mb 0.09 in2.3 mm 0.00 in/hr0.0 mm/hr 0.27 in6.9 mm
01:50 AM 70.9°F21.6°C 69.1°F20.6°C 94% 6.9 mph ENE11.1 kmh ENE 14.5 mph23.3 kmh 29.92 in1013.2 mb 0.11 in2.8 mm 0.24 in/hr6.1 mm/hr 0.27 in6.9 mm
01:45 AM 71.1°F21.7°C 69.3°F20.7°C 94% 4.5 mph ENE7.2 kmh ENE 9.2 mph14.8 kmh 29.92 in1013.2 mb 0.09 in2.3 mm 0.00 in/hr0.0 mm/hr 0.26 in6.6 mm
01:40 AM 71.1°F21.7°C 69.3°F20.7°C 94% 4.5 mph ENE7.2 kmh ENE 9.2 mph14.8 kmh 29.92 in1013.2 mb 0.09 in2.3 mm 0.36 in/hr9.1 mm/hr 0.25 in6.4 mm
01:35 AM 71.1°F21.7°C 69.3°F20.7°C 94% 6.0 mph NE9.7 kmh NE 7.6 mph12.2 kmh 29.92 in1013.2 mb 0.06 in1.5 mm 0.00 in/hr0.0 mm/hr 0.21 in5.3 mm
01:30 AM 70.7°F21.5°C 68.9°F20.5°C 94% 1.6 mph NE2.6 kmh NE 6.9 mph11.1 kmh 29.92 in1013.2 mb 0.07 in1.8 mm 0.00 in/hr0.0 mm/hr 0.21 in5.3 mm
01:25 AM 70.9°F21.6°C 69.1°F20.6°C 94% 3.1 mph NE5.0 kmh NE 10.7 mph17.2 kmh 29.92 in1013.2 mb 0.08 in2.0 mm 0.00 in/hr0.0 mm/hr 0.21 in5.3 mm
01:20 AM 70.9°F21.6°C 69.1°F20.6°C 94% 1.6 mph NE2.6 kmh NE 10.7 mph17.2 kmh 29.92 in1013.2 mb 0.09 in2.3 mm 0.00 in/hr0.0 mm/hr 0.21 in5.3 mm
01:15 AM 71.1°F21.7°C 69.3°F20.7°C 94% 4.5 mph NE7.2 kmh NE 7.6 mph12.2 kmh 29.92 in1013.2 mb 0.13 in3.3 mm 0.00 in/hr0.0 mm/hr 0.21 in5.3 mm
01:10 AM 71.1°F21.7°C 69.3°F20.7°C 94% 2.2 mph NE3.5 kmh NE 9.2 mph14.8 kmh 29.92 in1013.2 mb 0.17 in4.3 mm 0.00 in/hr0.0 mm/hr 0.20 in5.1 mm
01:05 AM 71.2°F21.8°C 69.5°F20.8°C 94% 3.1 mph NE5.0 kmh NE 9.2 mph14.8 kmh 29.92 in1013.2 mb 0.19 in4.8 mm 0.12 in/hr3.0 mm/hr 0.19 in4.8 mm
01:00 AM 71.4°F21.9°C 69.6°F20.9°C 94% 2.2 mph NE3.5 kmh NE 6.0 mph9.7 kmh 29.92 in1013.2 mb 0.18 in4.6 mm 0.00 in/hr0.0 mm/hr 0.18 in4.6 mm
12:55 AM 71.4°F21.9°C 69.6°F20.9°C 94% 1.6 mph NE2.6 kmh NE 8.3 mph13.4 kmh 29.92 in1013.2 mb 0.19 in4.8 mm 0.00 in/hr0.0 mm/hr 0.18 in4.6 mm
12:50 AM 71.2°F21.8°C 69.5°F20.8°C 94% 2.2 mph NE3.5 kmh NE 10.7 mph17.2 kmh 29.92 in1013.2 mb 0.19 in4.8 mm 0.00 in/hr0.0 mm/hr 0.17 in4.3 mm
12:45 AM 71.2°F21.8°C 69.5°F20.8°C 94% 4.5 mph NE7.2 kmh NE 10.7 mph17.2 kmh 29.92 in1013.2 mb 0.20 in5.1 mm 0.00 in/hr0.0 mm/hr 0.17 in4.3 mm
12:40 AM 71.2°F21.8°C 69.5°F20.8°C 94% 5.4 mph NE8.7 kmh NE 9.8 mph15.8 kmh 29.92 in1013.2 mb 0.20 in5.1 mm 0.00 in/hr0.0 mm/hr 0.15 in3.8 mm
12:35 AM 71.2°F21.8°C 69.5°F20.8°C 94% 3.8 mph ENE6.1 kmh ENE 8.3 mph13.4 kmh 29.92 in1013.2 mb 0.24 in6.1 mm 0.24 in/hr6.1 mm/hr 0.15 in3.8 mm
12:30 AM 71.2°F21.8°C 69.5°F20.8°C 94% 3.1 mph ENE5.0 kmh ENE 10.7 mph17.2 kmh 29.92 in1013.2 mb 0.22 in5.6 mm 0.00 in/hr0.0 mm/hr 0.14 in3.6 mm
12:25 AM 71.2°F21.8°C 69.5°F20.8°C 94% 1.6 mph E2.6 kmh E 10.7 mph17.2 kmh 29.92 in1013.2 mb 0.22 in5.6 mm 0.00 in/hr0.0 mm/hr 0.13 in3.3 mm
12:20 AM 71.4°F21.9°C 69.6°F20.9°C 94% 5.4 mph E8.7 kmh E 9.2 mph14.8 kmh 29.92 in1013.2 mb 0.22 in5.6 mm 0.36 in/hr9.1 mm/hr 0.12 in3.0 mm
12:15 AM 71.4°F21.9°C 69.6°F20.9°C 94% 4.5 mph E7.2 kmh E 9.2 mph14.8 kmh 29.92 in1013.2 mb 0.19 in4.8 mm 0.60 in/hr15.2 mm/hr 0.08 in2.0 mm
12:10 AM 71.6°F22.0°C 69.5°F20.8°C 93% 3.8 mph E6.1 kmh E 8.3 mph13.4 kmh 29.92 in1013.2 mb 0.14 in3.6 mm 0.36 in/hr9.1 mm/hr 0.04 in1.0 mm
12:05 AM 71.6°F22.0°C 69.5°F20.8°C 93% 3.1 mph E5.0 kmh E 8.3 mph13.4 kmh 29.92 in1013.2 mb 0.11 in2.8 mm 0.00 in/hr0.0 mm/hr 0.12 in3.0 mm
12:00 AM 71.6°F22.0°C 69.5°F20.8°C 93% 5.4 mph E8.7 kmh E 8.3 mph13.4 kmh 29.92 in1013.2 mb 0.12 in3.0 mm 0.00 in/hr0.0 mm/hr 0.12 in3.0 mm